IAD weather

Washington Dulles International Airport
Washington, District of Columbia, United States

Public forecast

Using degrees Fahrenheit for public forecast. Weather courtesy of forecast.io.

METAR (pilot weather report)

Retrieved 2017/07/23 03:52 UTC (22 minutes ago):

KIAD 230352Z 00000KT 10SM SCT026 BKN070 BKN140 BKN180 OVC210 23/22 A2979 RMK AO2 RAE07B34E43 SLP084 OCNL LTG DSNT SE TS DSNT SE VCSH P0000 T02280222

TAF (pilot weather forecast)

Forecast is more than 12 hours old.

Retrieved 2017/07/22 00:36 UTC (1 day ago):

TAF KIAD 222335Z 2300/2406 26005KT P6SM OVC060 FM230200 23005KT 4SM SHRA VCTS OVC045CB FM230600 24005KT P6SM VCTS BKN070CB FM230900 24006KT P6SM BKN250 FM231500 28007KT P6SM BKN040 FM232000 24007KT P6SM BKN045